createdAt,value
2023-05-14T00:01:55.592Z,70.19
2023-05-14T00:04:28.573Z,73.55
2023-05-14T00:07:02.911Z,72.90
2023-05-14T00:09:36.073Z,68.16
2023-05-14T00:12:09.660Z,69.52
2023-05-14T00:14:42.464Z,71.46
2023-05-14T00:17:15.459Z,73.00
2023-05-14T00:19:48.390Z,72.23
2023-05-14T00:22:22.585Z,70.57
2023-05-14T00:24:55.422Z,73.52
2023-05-14T00:27:28.219Z,70.72
2023-05-14T00:30:01.320Z,76.83
2023-05-14T00:32:34.217Z,71.95
2023-05-14T00:35:07.855Z,71.72
2023-05-14T00:37:42.026Z,71.88
2023-05-14T00:40:15.710Z,74.68
2023-05-14T00:42:48.614Z,78.29
2023-05-14T00:45:21.658Z,75.97
2023-05-14T00:47:55.242Z,75.44
2023-05-14T00:50:28.274Z,72.85
2023-05-14T00:53:02.558Z,75.68
2023-05-14T00:55:35.485Z,76.21
2023-05-14T00:58:10.684Z,72.10
2023-05-14T01:00:43.714Z,71.80
2023-05-14T01:03:17.221Z,73.54
2023-05-14T01:06:00.886Z,73.54
2023-05-14T01:08:41.679Z,74.06
2023-05-14T01:11:23.722Z,72.76
2023-05-14T01:14:04.593Z,73.70
2023-05-14T01:16:40.497Z,74.85
2023-05-14T01:19:28.402Z,76.46
2023-05-14T01:22:02.635Z,73.81
2023-05-14T01:24:35.968Z,70.67
2023-05-14T01:27:18.419Z,70.85
2023-05-14T01:29:57.226Z,73.75
2023-05-14T01:32:32.637Z,71.28
2023-05-14T01:35:07.460Z,71.98
2023-05-14T01:37:42.401Z,70.96
2023-05-14T01:40:17.554Z,77.54
2023-05-14T01:42:52.102Z,77.58
2023-05-14T01:45:25.343Z,75.84
2023-05-14T01:47:58.827Z,78.21
2023-05-14T01:50:31.984Z,82.07
2023-05-14T01:53:06.440Z,83.78
2023-05-14T01:55:39.668Z,85.32
2023-05-14T01:58:12.601Z,82.97
2023-05-14T02:00:45.526Z,81.98
2023-05-14T02:03:18.375Z,82.77
2023-05-14T02:05:51.285Z,84.39
2023-05-14T02:08:25.568Z,84.10
2023-05-14T02:10:58.415Z,81.61
2023-05-14T02:13:33.382Z,79.82
2023-05-14T02:16:07.116Z,80.73
2023-05-14T02:18:41.729Z,82.23
2023-05-14T02:21:14.595Z,81.60
2023-05-14T02:23:49.447Z,81.98
2023-05-14T02:26:22.382Z,79.45
2023-05-14T02:28:56.380Z,80.77
2023-05-14T02:31:29.890Z,83.68
2023-05-14T02:34:03.803Z,83.94
2023-05-14T02:36:36.782Z,83.71
2023-05-14T02:39:11.266Z,83.72
2023-05-14T02:41:44.173Z,82.40
2023-05-14T02:44:16.957Z,83.56
2023-05-14T02:46:50.086Z,80.86
2023-05-14T02:49:22.894Z,81.99
2023-05-14T02:51:55.735Z,81.76
2023-05-14T02:54:29.938Z,82.30
2023-05-14T02:57:02.841Z,80.53
2023-05-14T02:59:36.140Z,81.95
2023-05-14T03:02:09.487Z,83.45
2023-05-14T03:04:42.763Z,84.77
2023-05-14T03:07:15.553Z,85.94
2023-05-14T03:09:49.813Z,86.88
2023-05-14T03:12:22.701Z,85.88
2023-05-14T03:14:55.536Z,86.90
2023-05-14T03:17:28.365Z,86.67
2023-05-14T03:20:01.445Z,86.73
2023-05-14T03:22:34.294Z,86.22
2023-05-14T03:25:09.349Z,85.31
2023-05-14T03:27:42.587Z,84.97
2023-05-14T03:30:15.701Z,79.49
2023-05-14T03:32:48.786Z,81.60
2023-05-14T03:35:21.703Z,81.91
2023-05-14T03:37:54.545Z,83.11
2023-05-14T03:40:28.733Z,83.17
2023-05-14T03:43:01.523Z,79.42
2023-05-14T03:45:34.777Z,82.30
2023-05-14T03:48:07.960Z,80.88
2023-05-14T03:50:41.084Z,78.85
2023-05-14T03:53:13.920Z,77.66
2023-05-14T03:55:48.122Z,78.25
2023-05-14T03:58:22.749Z,81.56
2023-05-14T04:00:55.607Z,81.75
2023-05-14T04:03:28.769Z,78.39
2023-05-14T04:06:02.718Z,80.59
2023-05-14T04:08:35.537Z,80.71
2023-05-14T04:11:10.012Z,80.20
2023-05-14T04:13:42.846Z,78.68
2023-05-14T04:16:16.437Z,77.80
2023-05-14T04:18:49.278Z,78.20
2023-05-14T04:21:22.114Z,78.77
2023-05-14T04:23:54.989Z,80.15
2023-05-14T04:26:29.326Z,79.32
2023-05-14T04:29:03.382Z,80.61
2023-05-14T04:31:37.176Z,81.14
2023-05-14T04:34:10.158Z,78.35
2023-05-14T04:36:42.951Z,80.27
2023-05-14T04:39:15.798Z,76.58
2023-05-14T04:41:49.902Z,75.62
2023-05-14T04:44:22.786Z,76.75
2023-05-14T04:46:55.699Z,80.59
2023-05-14T04:49:29.029Z,78.44
2023-05-14T04:52:02.256Z,80.87
2023-05-14T04:54:35.153Z,79.74
2023-05-14T04:57:09.701Z,77.13
2023-05-14T04:59:42.702Z,78.75
2023-05-14T05:02:15.723Z,77.51
2023-05-14T05:04:48.526Z,78.06
2023-05-14T05:07:21.336Z,81.33
2023-05-14T05:09:56.574Z,79.46
2023-05-14T05:12:30.931Z,80.44
2023-05-14T05:15:03.746Z,79.74
2023-05-14T05:17:37.995Z,79.15
2023-05-14T05:20:11.692Z,80.82
2023-05-14T05:22:44.491Z,77.74
2023-05-14T05:25:17.397Z,80.33
2023-05-14T05:27:51.537Z,79.38
2023-05-14T05:30:24.903Z,79.41
2023-05-14T05:32:58.151Z,81.50
2023-05-14T05:35:31.181Z,82.66
2023-05-14T05:38:04.110Z,81.73
2023-05-14T05:40:36.896Z,81.66
2023-05-14T05:43:11.293Z,79.17
2023-05-14T05:45:44.238Z,80.57
2023-05-14T05:48:17.072Z,79.78
2023-05-14T05:50:51.443Z,79.17
2023-05-14T05:53:24.397Z,79.67
2023-05-14T05:55:57.235Z,79.39
2023-05-14T05:58:31.590Z,78.70
2023-05-14T06:01:04.419Z,78.62
2023-05-14T06:03:37.285Z,77.42
2023-05-14T06:06:10.053Z,78.15
2023-05-14T06:08:43.361Z,77.42
2023-05-14T06:11:16.848Z,77.90
2023-05-14T06:13:50.953Z,77.13
2023-05-14T06:16:23.852Z,75.32
2023-05-14T06:18:56.883Z,76.58
2023-05-14T06:21:29.668Z,76.56
2023-05-14T06:24:02.594Z,75.05
2023-05-14T06:26:35.807Z,73.89
2023-05-14T06:29:09.952Z,74.43
2023-05-14T06:31:42.719Z,73.12
2023-05-14T06:34:15.726Z,72.18
2023-05-14T06:36:48.634Z,69.96
2023-05-14T06:39:21.612Z,70.56
2023-05-14T06:41:54.398Z,68.46
2023-05-14T06:44:31.707Z,69.44
2023-05-14T06:47:06.478Z,71.47
2023-05-14T06:49:39.939Z,69.76
2023-05-14T06:52:12.768Z,70.17
2023-05-14T06:54:45.568Z,70.16
2023-05-14T06:57:18.347Z,69.35
2023-05-14T06:59:53.594Z,69.25
2023-05-14T07:02:26.502Z,68.61
2023-05-14T07:04:59.292Z,70.44
2023-05-14T07:07:33.253Z,68.66
2023-05-14T07:10:08.050Z,68.51
2023-05-14T07:12:42.479Z,66.48
2023-05-14T07:15:16.783Z,65.80
2023-05-14T07:17:50.121Z,66.85
2023-05-14T07:20:27.277Z,66.81
2023-05-14T07:23:00.679Z,65.87
2023-05-14T07:25:36.465Z,64.98
2023-05-14T07:28:09.336Z,65.41
2023-05-14T07:30:45.195Z,63.94
2023-05-14T07:33:18.144Z,65.97
2023-05-14T07:35:51.158Z,65.54
2023-05-14T07:38:24.003Z,64.77
2023-05-14T07:40:56.801Z,63.29
2023-05-14T07:43:29.582Z,63.24
2023-05-14T07:46:03.686Z,62.07
2023-05-14T07:48:36.489Z,62.89
2023-05-14T07:51:10.492Z,61.82
2023-05-14T07:53:43.406Z,62.12
2023-05-14T07:56:16.174Z,61.08
2023-05-14T07:58:49.278Z,61.20
2023-05-14T08:01:23.765Z,64.05
2023-05-14T08:03:56.644Z,63.45
2023-05-14T08:06:32.579Z,61.21
2023-05-14T08:09:05.924Z,58.77
2023-05-14T08:11:39.101Z,56.23
2023-05-14T08:14:11.997Z,56.28
2023-05-14T08:16:48.674Z,55.85
2023-05-14T08:19:21.625Z,54.97
2023-05-14T08:21:54.643Z,54.29
2023-05-14T08:24:27.493Z,52.60
2023-05-14T08:27:00.494Z,54.46
2023-05-14T08:29:33.327Z,52.82
2023-05-14T08:32:16.037Z,52.73
2023-05-14T08:34:55.853Z,50.80
2023-05-14T08:37:28.632Z,54.19
2023-05-14T08:40:01.524Z,49.22
2023-05-14T08:42:34.752Z,50.14
2023-05-14T08:45:14.732Z,49.30
2023-05-14T08:47:51.260Z,52.90
2023-05-14T08:50:25.265Z,50.55
2023-05-14T08:52:58.621Z,49.76
2023-05-14T08:55:35.374Z,51.98
2023-05-14T08:58:08.154Z,46.81
2023-05-14T09:00:41.269Z,46.42
2023-05-14T09:03:16.249Z,45.88
2023-05-14T09:05:50.174Z,46.40
2023-05-14T09:08:23.217Z,44.70
2023-05-14T09:10:56.032Z,44.43
2023-05-14T09:13:29.021Z,42.69
2023-05-14T09:16:02.499Z,44.23
2023-05-14T09:18:38.270Z,45.61
2023-05-14T09:21:11.125Z,45.70
2023-05-14T09:23:44.649Z,44.44
2023-05-14T09:26:18.511Z,45.13
2023-05-14T09:28:56.797Z,45.34
2023-05-14T09:31:32.431Z,41.64
2023-05-14T09:34:07.401Z,45.21
2023-05-14T09:36:43.817Z,40.83
2023-05-14T09:39:17.448Z,40.75
2023-05-14T09:41:51.637Z,44.48
2023-05-14T09:44:25.480Z,40.42
2023-05-14T09:46:58.558Z,41.56
2023-05-14T09:49:33.031Z,41.91
2023-05-14T09:52:08.270Z,42.21
2023-05-14T09:54:41.699Z,40.69
2023-05-14T09:57:14.761Z,36.40
2023-05-14T09:59:48.356Z,44.29
2023-05-14T10:02:25.296Z,37.52
2023-05-14T10:05:03.475Z,42.05
2023-05-14T10:07:41.510Z,38.13
2023-05-14T10:10:17.363Z,42.63
2023-05-14T10:12:54.391Z,33.97
2023-05-14T10:15:34.524Z,40.32
2023-05-14T10:18:11.648Z,32.49
2023-05-14T10:20:49.432Z,33.22
2023-05-14T10:23:22.406Z,37.47
2023-05-14T10:25:55.430Z,35.84
2023-05-14T10:28:28.821Z,36.64
2023-05-14T10:31:01.802Z,34.28
2023-05-14T10:33:49.140Z,34.32
2023-05-14T10:36:23.374Z,38.03
2023-05-14T10:38:56.997Z,32.24
2023-05-14T10:41:29.986Z,34.03
2023-05-14T10:44:09.799Z,30.61
2023-05-14T10:46:43.446Z,35.91
2023-05-14T10:49:28.818Z,35.17
2023-05-14T10:52:11.845Z,33.80
2023-05-14T10:54:49.616Z,36.76
2023-05-14T10:57:24.926Z,33.29
2023-05-14T10:59:59.153Z,34.51
2023-05-14T11:02:33.881Z,32.85
2023-05-14T11:05:10.488Z,34.33
2023-05-14T11:07:46.065Z,34.31
2023-05-14T11:10:21.314Z,29.29
2023-05-14T11:12:54.190Z,32.63
2023-05-14T11:15:28.539Z,31.02
2023-05-14T11:18:01.668Z,33.45
2023-05-14T11:20:37.018Z,30.77
2023-05-14T11:23:11.298Z,31.72
2023-05-14T11:25:44.152Z,32.39
2023-05-14T11:28:17.104Z,35.83
2023-05-14T11:30:50.302Z,31.58
2023-05-14T11:33:23.425Z,29.27
2023-05-14T11:35:56.359Z,36.42
2023-05-14T11:38:30.516Z,28.79
2023-05-14T11:41:04.860Z,31.01
2023-05-14T11:43:37.845Z,28.46
2023-05-14T11:46:18.000Z,27.90
2023-05-14T11:48:51.010Z,27.19
2023-05-14T11:51:24.515Z,26.81
2023-05-14T11:53:59.006Z,28.92
2023-05-14T11:56:31.818Z,27.49
2023-05-14T11:59:04.615Z,32.34
2023-05-14T12:01:37.906Z,30.57
2023-05-14T12:04:10.880Z,32.52
2023-05-14T12:06:43.845Z,30.57
2023-05-14T12:09:19.056Z,35.41
2023-05-14T12:11:52.770Z,33.19
2023-05-14T12:14:25.431Z,29.50
2023-05-14T12:16:58.238Z,30.94
2023-05-14T12:19:31.445Z,28.12
2023-05-14T12:22:04.297Z,28.48
2023-05-14T12:24:39.116Z,30.76
2023-05-14T12:27:11.915Z,27.73
2023-05-14T12:29:44.747Z,27.99
2023-05-14T12:32:18.432Z,33.59
2023-05-14T12:34:51.318Z,31.01
2023-05-14T12:37:24.156Z,28.55
2023-05-14T12:39:58.316Z,25.79
2023-05-14T12:42:31.169Z,25.73
2023-05-14T12:45:07.569Z,27.11
2023-05-14T12:47:40.468Z,26.61
2023-05-14T12:50:16.296Z,25.53
2023-05-14T12:52:49.069Z,27.42
2023-05-14T12:55:23.363Z,28.21
2023-05-14T12:57:56.594Z,28.57
2023-05-14T13:00:29.469Z,32.30
2023-05-14T13:03:02.274Z,26.97
2023-05-14T13:05:35.092Z,26.22
2023-05-14T13:08:07.836Z,25.98
2023-05-14T13:10:44.198Z,27.31
2023-05-14T13:13:17.107Z,25.07
2023-05-14T13:15:50.148Z,27.26
2023-05-14T13:18:22.999Z,28.35
2023-05-14T13:20:55.961Z,26.21
2023-05-14T13:23:29.101Z,26.95
2023-05-14T13:26:03.680Z,26.95
2023-05-14T13:28:36.889Z,27.83
2023-05-14T13:31:10.942Z,25.61
2023-05-14T13:33:45.282Z,25.32
2023-05-14T13:36:18.138Z,22.13
2023-05-14T13:38:51.043Z,25.43
2023-05-14T13:41:27.209Z,24.68
2023-05-14T13:44:00.043Z,22.86
2023-05-14T13:46:32.986Z,25.29
2023-05-14T13:49:07.737Z,24.81
2023-05-14T13:51:40.843Z,24.17
2023-05-14T13:54:13.668Z,26.21
2023-05-14T13:56:48.079Z,22.70
2023-05-14T13:59:22.145Z,23.29
2023-05-14T14:01:55.258Z,23.19
2023-05-14T14:04:29.069Z,26.33
2023-05-14T14:07:02.135Z,20.90
2023-05-14T14:09:36.855Z,25.83
2023-05-14T14:12:11.666Z,24.06
2023-05-14T14:14:44.729Z,25.81
2023-05-14T14:17:17.541Z,25.42
2023-05-14T14:19:50.367Z,24.83
2023-05-14T14:22:26.157Z,26.75
2023-05-14T14:25:01.427Z,21.08
2023-05-14T14:27:38.411Z,22.85
2023-05-14T14:30:15.725Z,26.32
2023-05-14T14:32:49.680Z,25.05
2023-05-14T14:35:23.074Z,30.48
2023-05-14T14:37:56.167Z,23.39
2023-05-14T14:40:29.673Z,20.05
2023-05-14T14:43:03.922Z,28.19
2023-05-14T14:45:36.913Z,24.50
2023-05-14T14:48:31.325Z,21.26
2023-05-14T14:51:05.495Z,25.21
2023-05-14T14:53:40.254Z,23.39
2023-05-14T14:56:13.223Z,25.78
2023-05-14T14:58:47.445Z,24.05
2023-05-14T15:01:21.226Z,26.02
2023-05-14T15:03:54.258Z,24.58
2023-05-14T15:06:27.794Z,22.97
2023-05-14T15:09:00.640Z,31.38
2023-05-14T15:11:34.990Z,30.35
2023-05-14T15:14:10.270Z,30.02
2023-05-14T15:16:43.237Z,29.40
2023-05-14T15:19:16.190Z,28.61
2023-05-14T15:21:49.620Z,30.13
2023-05-14T15:24:23.932Z,26.74
2023-05-14T15:26:56.767Z,34.86
2023-05-14T15:29:31.079Z,28.58
2023-05-14T15:32:04.354Z,27.72
2023-05-14T15:34:37.334Z,29.45
2023-05-14T15:37:10.144Z,26.40
2023-05-14T15:39:42.971Z,26.04
2023-05-14T15:42:16.218Z,31.85
2023-05-14T15:44:50.424Z,28.01
2023-05-14T15:47:23.381Z,24.39
2023-05-14T15:49:56.232Z,27.06
2023-05-14T15:52:29.614Z,25.26
2023-05-14T15:55:02.659Z,25.96
2023-05-14T15:57:35.937Z,29.56
2023-05-14T16:00:11.670Z,30.15
2023-05-14T16:02:44.881Z,27.91
2023-05-14T16:05:17.902Z,23.35
2023-05-14T16:07:50.962Z,22.85
2023-05-14T16:10:24.147Z,24.17
2023-05-14T16:12:57.160Z,25.37
2023-05-14T16:15:31.408Z,22.06
2023-05-14T16:18:04.437Z,25.81
2023-05-14T16:20:37.473Z,21.15
2023-05-14T16:23:10.607Z,29.17
2023-05-14T16:25:43.465Z,25.53
2023-05-14T16:28:16.420Z,27.70
2023-05-14T16:30:50.797Z,25.49
2023-05-14T16:33:23.717Z,23.60
2023-05-14T16:35:56.534Z,25.58
2023-05-14T16:38:29.538Z,24.68
2023-05-14T16:41:02.362Z,28.15
2023-05-14T16:43:35.168Z,24.41
2023-05-14T16:46:09.590Z,25.80
2023-05-14T16:48:44.058Z,28.38
2023-05-14T16:51:18.073Z,30.26
2023-05-14T16:53:52.052Z,28.85
2023-05-14T16:56:26.397Z,27.25
2023-05-14T16:58:59.166Z,34.50
2023-05-14T17:01:33.402Z,26.81
2023-05-14T17:04:06.230Z,29.97
2023-05-14T17:06:39.235Z,30.04
2023-05-14T17:09:12.096Z,27.10
2023-05-14T17:11:44.980Z,33.55
2023-05-14T17:14:18.329Z,27.53
2023-05-14T17:16:52.552Z,31.90
2023-05-14T17:19:26.146Z,31.25
2023-05-14T17:21:59.058Z,29.89
2023-05-14T17:24:31.905Z,36.60
2023-05-14T17:27:05.256Z,29.10
2023-05-14T17:29:38.171Z,30.48
2023-05-14T17:32:12.410Z,30.61
2023-05-14T17:34:45.356Z,37.17
2023-05-14T17:37:18.381Z,34.61
2023-05-14T17:39:51.286Z,31.80
2023-05-14T17:42:24.119Z,32.18
2023-05-14T17:44:56.900Z,37.17
2023-05-14T17:47:31.170Z,34.23
2023-05-14T17:50:04.356Z,31.41
2023-05-14T17:52:37.728Z,39.21
2023-05-14T17:55:10.974Z,35.90
2023-05-14T17:57:44.321Z,32.85
2023-05-14T18:00:17.919Z,34.93
2023-05-14T18:02:52.471Z,35.29
2023-05-14T18:05:26.456Z,34.00
2023-05-14T18:07:59.761Z,34.58
2023-05-14T18:10:32.565Z,40.08
2023-05-14T18:13:05.416Z,38.53
2023-05-14T18:15:38.764Z,37.15
2023-05-14T18:18:13.423Z,36.85
2023-05-14T18:20:46.238Z,38.35
2023-05-14T18:23:19.051Z,36.69
2023-05-14T18:25:51.905Z,38.64
2023-05-14T18:28:24.765Z,37.45
2023-05-14T18:30:57.620Z,40.25
2023-05-14T18:33:32.397Z,38.82
2023-05-14T18:36:05.782Z,43.09
2023-05-14T18:38:38.592Z,44.19
2023-05-14T18:41:11.424Z,40.67
2023-05-14T18:43:44.508Z,41.09
2023-05-14T18:46:18.002Z,41.88
2023-05-14T18:48:52.353Z,43.14
2023-05-14T18:51:25.372Z,43.18
2023-05-14T18:53:58.299Z,42.41
2023-05-14T18:56:31.214Z,41.11
2023-05-14T18:59:04.286Z,42.38
2023-05-14T19:01:37.247Z,45.23
2023-05-14T19:04:11.793Z,44.74
2023-05-14T19:06:44.865Z,42.70
2023-05-14T19:09:20.943Z,42.07
2023-05-14T19:11:53.802Z,42.80
2023-05-14T19:14:26.611Z,45.19
2023-05-14T19:16:59.771Z,44.38
2023-05-14T19:19:33.931Z,44.54
2023-05-14T19:22:06.909Z,44.90
2023-05-14T19:24:40.061Z,44.33
2023-05-14T19:27:16.158Z,44.00
2023-05-14T19:29:49.155Z,46.67
2023-05-14T19:32:22.042Z,46.48
2023-05-14T19:34:56.238Z,46.49
2023-05-14T19:37:29.463Z,46.83
2023-05-14T19:40:02.493Z,47.45
2023-05-14T19:42:35.630Z,49.75
2023-05-14T19:45:10.116Z,48.18
2023-05-14T19:47:43.111Z,48.40
2023-05-14T19:50:17.511Z,48.13
2023-05-14T19:52:50.884Z,49.73
2023-05-14T19:55:23.979Z,48.98
2023-05-14T19:57:57.655Z,48.95
2023-05-14T20:00:30.576Z,49.19
2023-05-14T20:03:04.138Z,49.54
2023-05-14T20:05:40.890Z,50.22
2023-05-14T20:08:14.238Z,50.24
2023-05-14T20:10:47.370Z,50.64
2023-05-14T20:13:20.540Z,50.97
2023-05-14T20:15:55.282Z,51.28
2023-05-14T20:18:28.333Z,50.81
2023-05-14T20:21:02.810Z,51.58
2023-05-14T20:23:36.200Z,53.50
2023-05-14T20:26:09.148Z,54.05
2023-05-14T20:28:43.298Z,53.79
2023-05-14T20:31:16.405Z,53.54
2023-05-14T20:33:49.395Z,52.88
2023-05-14T20:36:24.292Z,53.81
2023-05-14T20:38:57.636Z,54.07
2023-05-14T20:41:30.591Z,53.01
2023-05-14T20:44:03.505Z,54.44
2023-05-14T20:46:36.419Z,53.52
2023-05-14T20:49:09.240Z,54.13
2023-05-14T20:51:43.373Z,53.11
2023-05-14T20:54:16.389Z,54.69
2023-05-14T20:56:49.251Z,54.41
2023-05-14T20:59:22.080Z,55.37
2023-05-14T21:01:55.035Z,55.19
2023-05-14T21:04:27.969Z,54.74
2023-05-14T21:07:02.761Z,54.39
2023-05-14T21:09:35.640Z,54.97
2023-05-14T21:12:09.201Z,55.34
2023-05-14T21:14:42.622Z,56.08
2023-05-14T21:17:15.544Z,57.24
2023-05-14T21:19:48.379Z,56.07
2023-05-14T21:22:23.507Z,58.11
2023-05-14T21:24:56.514Z,58.04
2023-05-14T21:27:29.783Z,59.13
2023-05-14T21:30:02.723Z,57.68
2023-05-14T21:32:35.812Z,56.96
2023-05-14T21:35:09.558Z,57.72
2023-05-14T21:37:43.766Z,58.29
2023-05-14T21:40:16.554Z,57.93
2023-05-14T21:42:49.350Z,57.74
2023-05-14T21:45:23.572Z,58.24
2023-05-14T21:47:56.579Z,57.76
2023-05-14T21:50:29.448Z,58.30
2023-05-14T21:53:03.700Z,58.83
2023-05-14T21:55:36.731Z,57.34
2023-05-14T21:58:09.661Z,58.71
2023-05-14T22:00:42.467Z,58.52
2023-05-14T22:03:15.523Z,58.76
2023-05-14T22:05:49.239Z,58.59
2023-05-14T22:08:23.530Z,58.12
2023-05-14T22:10:56.820Z,61.40
2023-05-14T22:13:29.645Z,63.95
2023-05-14T22:16:12.177Z,64.08
2023-05-14T22:18:47.066Z,64.41
2023-05-14T22:21:20.043Z,60.69
2023-05-14T22:23:54.218Z,65.19
2023-05-14T22:26:27.046Z,65.10
2023-05-14T22:28:59.878Z,68.53
2023-05-14T22:31:32.656Z,62.33
2023-05-14T22:34:05.554Z,65.51
2023-05-14T22:36:38.431Z,65.16
2023-05-14T22:39:13.484Z,64.16
2023-05-14T22:41:46.507Z,70.00
2023-05-14T22:44:19.325Z,66.80
2023-05-14T22:46:52.176Z,67.73
2023-05-14T22:49:25.143Z,67.13
2023-05-14T22:51:57.908Z,62.89
2023-05-14T22:54:32.529Z,68.35
2023-05-14T22:57:06.673Z,69.90
2023-05-14T22:59:39.792Z,70.21
2023-05-14T23:02:12.716Z,73.48
2023-05-14T23:04:45.565Z,72.33
2023-05-14T23:07:18.457Z,67.77
2023-05-14T23:09:52.633Z,68.54
2023-05-14T23:12:25.433Z,62.97
2023-05-14T23:14:59.089Z,67.19
2023-05-14T23:17:32.060Z,67.66
2023-05-14T23:20:06.127Z,68.15
2023-05-14T23:22:39.640Z,74.60
2023-05-14T23:25:13.888Z,76.84
2023-05-14T23:27:46.805Z,77.16
2023-05-14T23:30:19.610Z,75.43
2023-05-14T23:32:52.475Z,72.96
2023-05-14T23:35:25.769Z,72.82
2023-05-14T23:37:59.031Z,68.14
2023-05-14T23:40:34.138Z,70.07
2023-05-14T23:43:07.015Z,67.98
2023-05-14T23:45:39.889Z,66.56
2023-05-14T23:48:13.042Z,68.16
2023-05-14T23:50:45.879Z,67.36
2023-05-14T23:53:18.986Z,66.91
2023-05-14T23:55:53.200Z,67.85
2023-05-14T23:58:26.332Z,68.30
